createdAt,value
2022-10-10T00:00:48.761Z,1.33
2022-10-10T00:03:16.735Z,1.40
2022-10-10T00:05:44.679Z,1.50
2022-10-10T00:08:12.591Z,1.40
2022-10-10T00:10:41.810Z,1.20
2022-10-10T00:13:09.665Z,1.40
2022-10-10T00:15:37.534Z,1.30
2022-10-10T00:18:05.706Z,1.47
2022-10-10T00:20:33.569Z,1.50
2022-10-10T00:23:01.429Z,1.53
2022-10-10T00:25:29.323Z,1.53
2022-10-10T00:28:02.018Z,1.50
2022-10-10T00:30:29.861Z,1.50
2022-10-10T00:32:59.265Z,1.50
2022-10-10T00:35:27.143Z,1.60
2022-10-10T00:37:55.007Z,1.40
2022-10-10T00:40:22.971Z,1.50
2022-10-10T00:42:51.108Z,1.30
2022-10-10T00:45:38.295Z,1.40
2022-10-10T00:48:07.890Z,1.33
2022-10-10T00:50:38.133Z,1.30
2022-10-10T00:53:06.708Z,1.53
2022-10-10T00:55:34.636Z,1.60
2022-10-10T00:58:02.546Z,1.40
2022-10-10T01:00:30.402Z,1.40
2022-10-10T01:02:59.647Z,1.50
2022-10-10T01:05:27.498Z,1.53
2022-10-10T01:07:55.345Z,1.50
2022-10-10T01:10:24.748Z,1.33
2022-10-10T01:13:01.499Z,1.40
2022-10-10T01:15:33.521Z,1.43
2022-10-10T01:18:04.851Z,1.40
2022-10-10T01:20:45.842Z,1.40
2022-10-10T01:23:26.918Z,1.40
2022-10-10T01:26:01.365Z,1.40
2022-10-10T01:28:37.778Z,1.50
2022-10-10T01:31:06.278Z,1.50
2022-10-10T01:33:36.979Z,1.20
2022-10-10T01:36:06.037Z,1.40
2022-10-10T01:38:36.787Z,1.50
2022-10-10T01:41:07.311Z,1.57
2022-10-10T01:43:36.581Z,1.40
2022-10-10T01:46:10.565Z,1.50
2022-10-10T01:48:38.416Z,1.50
2022-10-10T01:51:25.730Z,1.40
2022-10-10T01:53:57.428Z,1.47
2022-10-10T01:56:29.340Z,1.30
2022-10-10T01:59:10.929Z,1.40
2022-10-10T02:01:46.366Z,1.37
2022-10-10T02:04:16.709Z,1.30
2022-10-10T02:06:47.595Z,1.53
2022-10-10T02:09:17.289Z,1.30
2022-10-10T02:11:46.971Z,1.30
2022-10-10T02:14:18.533Z,1.33
2022-10-10T02:16:47.640Z,1.47
2022-10-10T02:19:18.706Z,1.30
2022-10-10T02:21:46.751Z,1.30
2022-10-10T02:24:14.749Z,1.33
2022-10-10T02:26:44.417Z,1.43
2022-10-10T02:29:13.693Z,1.33
2022-10-10T02:31:44.652Z,1.30
2022-10-10T02:34:14.076Z,1.30
2022-10-10T02:36:42.059Z,1.40
2022-10-10T02:39:09.932Z,1.20
2022-10-10T02:41:37.828Z,1.20
2022-10-10T02:44:05.671Z,1.30
2022-10-10T02:46:33.547Z,1.30
2022-10-10T02:49:03.745Z,1.40
2022-10-10T02:51:31.660Z,1.30
2022-10-10T02:53:59.584Z,1.20
2022-10-10T02:56:27.434Z,1.30
2022-10-10T02:58:55.350Z,1.40
2022-10-10T03:01:23.256Z,1.40
2022-10-10T03:03:51.219Z,1.43
2022-10-10T03:06:20.489Z,1.23
2022-10-10T03:08:48.351Z,1.40
2022-10-10T03:11:16.764Z,1.40
2022-10-10T03:13:44.633Z,1.23
2022-10-10T03:16:12.631Z,1.20
2022-10-10T03:18:40.537Z,1.43
2022-10-10T03:21:08.745Z,1.20
2022-10-10T03:23:37.943Z,1.33
2022-10-10T03:26:06.074Z,1.40
2022-10-10T03:28:34.039Z,1.20
2022-10-10T03:31:02.007Z,1.40
2022-10-10T03:33:29.885Z,1.43
2022-10-10T03:35:57.756Z,1.50
2022-10-10T03:38:25.650Z,1.30
2022-10-10T03:40:55.096Z,1.30
2022-10-10T03:43:22.949Z,1.37
2022-10-10T03:45:50.789Z,2.70
2022-10-10T03:48:18.627Z,5.57
2022-10-10T03:50:46.472Z,7.53
2022-10-10T03:53:14.328Z,6.00
2022-10-10T03:55:42.466Z,9.37
2022-10-10T03:58:12.057Z,8.50
2022-10-10T04:00:40.005Z,7.17
2022-10-10T04:03:08.158Z,8.37
2022-10-10T04:05:36.192Z,5.57
2022-10-10T04:08:04.093Z,8.57
2022-10-10T04:10:31.986Z,5.63
2022-10-10T04:12:59.855Z,4.97
2022-10-10T04:15:29.059Z,7.57
2022-10-10T04:17:56.910Z,6.17
2022-10-10T04:20:24.770Z,5.70
2022-10-10T04:22:53.090Z,6.17
2022-10-10T04:25:21.199Z,7.53
2022-10-10T04:27:49.056Z,7.10
2022-10-10T04:30:16.994Z,6.20
2022-10-10T04:32:46.169Z,8.10
2022-10-10T04:35:14.029Z,8.03
2022-10-10T04:37:41.883Z,6.93
2022-10-10T04:40:10.980Z,8.03
2022-10-10T04:42:39.025Z,8.00
2022-10-10T04:45:07.901Z,7.63
2022-10-10T04:47:35.813Z,7.23
2022-10-10T04:50:05.534Z,4.90
2022-10-10T04:52:37.475Z,6.07
2022-10-10T04:55:05.931Z,5.73
2022-10-10T04:57:33.791Z,8.23
2022-10-10T05:00:01.656Z,4.60
2022-10-10T05:02:29.503Z,4.87
2022-10-10T05:04:57.342Z,6.27
2022-10-10T05:07:26.592Z,5.63
2022-10-10T05:09:54.445Z,5.13
2022-10-10T05:12:22.311Z,6.73
2022-10-10T05:14:50.160Z,4.53
2022-10-10T05:17:18.060Z,4.03
2022-10-10T05:19:45.952Z,6.67
2022-10-10T05:22:13.834Z,4.37
2022-10-10T05:24:43.145Z,3.80
2022-10-10T05:27:10.998Z,5.03
2022-10-10T05:29:38.849Z,3.63
2022-10-10T05:32:10.282Z,3.63
2022-10-10T05:34:38.475Z,4.60
2022-10-10T05:37:06.360Z,4.07
2022-10-10T05:39:34.209Z,3.53
2022-10-10T05:42:03.461Z,4.37
2022-10-10T05:44:31.301Z,3.47
2022-10-10T05:46:59.168Z,5.80
2022-10-10T05:49:27.013Z,5.87
2022-10-10T05:51:54.858Z,3.77
2022-10-10T05:54:22.808Z,3.60
2022-10-10T05:56:50.702Z,4.33
2022-10-10T05:59:19.906Z,3.97
2022-10-10T06:01:47.752Z,3.93
2022-10-10T06:04:15.599Z,3.43
2022-10-10T06:06:43.488Z,3.63
2022-10-10T06:09:11.325Z,3.43
2022-10-10T06:11:39.186Z,3.23
2022-10-10T06:14:07.031Z,3.10
2022-10-10T06:16:36.882Z,3.23
2022-10-10T06:19:04.742Z,2.97
2022-10-10T06:21:32.617Z,2.97
2022-10-10T06:24:00.526Z,3.40
2022-10-10T06:26:28.410Z,3.07
2022-10-10T06:28:56.306Z,2.70
2022-10-10T06:31:24.157Z,2.90
2022-10-10T06:33:53.345Z,2.70
2022-10-10T06:36:21.282Z,3.20
2022-10-10T06:38:49.167Z,3.00
2022-10-10T06:41:17.015Z,2.90
2022-10-10T06:43:44.900Z,2.77
2022-10-10T06:46:13.281Z,2.73
2022-10-10T06:48:41.146Z,3.20
2022-10-10T06:51:12.159Z,3.03
2022-10-10T06:53:40.054Z,4.37
2022-10-10T06:56:07.904Z,2.90
2022-10-10T06:58:35.796Z,2.90
2022-10-10T07:01:04.711Z,2.63
2022-10-10T07:03:32.623Z,3.17
2022-10-10T07:06:01.286Z,2.90
2022-10-10T07:08:32.741Z,2.83
2022-10-10T07:11:00.606Z,2.70
2022-10-10T07:13:28.497Z,3.37
2022-10-10T07:15:56.406Z,2.80
2022-10-10T07:18:24.290Z,2.63
2022-10-10T07:20:52.183Z,2.60
2022-10-10T07:23:20.278Z,2.37
2022-10-10T07:25:49.480Z,2.57
2022-10-10T07:28:17.399Z,2.30
2022-10-10T07:30:46.299Z,3.00
2022-10-10T07:33:14.346Z,2.53
2022-10-10T07:35:42.295Z,2.37
2022-10-10T07:38:11.610Z,2.10
2022-10-10T07:40:40.576Z,2.70
2022-10-10T07:43:09.889Z,2.67
2022-10-10T07:45:37.838Z,2.53
2022-10-10T07:48:06.430Z,2.40
2022-10-10T07:50:34.331Z,2.50
2022-10-10T07:53:02.204Z,2.43
2022-10-10T07:55:30.092Z,2.43
2022-10-10T07:57:59.578Z,2.30
2022-10-10T08:00:29.303Z,2.47
2022-10-10T08:02:58.453Z,2.43
2022-10-10T08:05:26.342Z,2.70
2022-10-10T08:07:54.583Z,2.43
2022-10-10T08:10:22.718Z,2.40
2022-10-10T08:12:50.629Z,2.23
2022-10-10T08:15:18.667Z,2.40
2022-10-10T08:17:47.982Z,2.53
2022-10-10T08:20:16.055Z,2.53
2022-10-10T08:22:43.950Z,2.40
2022-10-10T08:25:11.835Z,1.87
2022-10-10T08:27:39.717Z,2.83
2022-10-10T08:30:08.217Z,2.40
2022-10-10T08:32:36.076Z,2.30
2022-10-10T08:35:05.995Z,2.10
2022-10-10T08:37:37.226Z,2.07
2022-10-10T08:40:06.377Z,2.30
2022-10-10T08:42:35.898Z,2.20
2022-10-10T08:45:04.861Z,2.23
2022-10-10T08:47:38.001Z,2.20
2022-10-10T08:50:12.419Z,2.20
2022-10-10T08:52:42.449Z,2.07
2022-10-10T08:55:15.933Z,2.27
2022-10-10T08:57:49.496Z,2.00
2022-10-10T09:00:18.759Z,2.47
2022-10-10T09:02:54.036Z,2.03
2022-10-10T09:05:30.797Z,1.73
2022-10-10T09:08:12.726Z,2.00
2022-10-10T09:10:44.412Z,2.20
2022-10-10T09:13:17.636Z,1.80
2022-10-10T09:15:50.658Z,1.90
2022-10-10T09:18:22.459Z,1.70
2022-10-10T09:20:56.251Z,1.90
2022-10-10T09:23:26.359Z,2.00
2022-10-10T09:25:55.965Z,1.93
2022-10-10T09:28:32.863Z,1.90
2022-10-10T09:31:01.307Z,2.10
2022-10-10T09:33:30.764Z,2.30
2022-10-10T09:36:00.158Z,1.80
2022-10-10T09:38:33.317Z,2.17
2022-10-10T09:41:02.765Z,2.03
2022-10-10T09:43:32.201Z,1.80
2022-10-10T09:46:00.066Z,1.53
2022-10-10T09:48:30.104Z,2.13
2022-10-10T09:50:59.918Z,1.80
2022-10-10T09:53:28.159Z,2.20
2022-10-10T09:55:56.039Z,2.30
2022-10-10T09:58:29.097Z,2.07
2022-10-10T10:00:57.347Z,2.07
2022-10-10T10:03:25.409Z,1.80
2022-10-10T10:05:57.352Z,1.57
2022-10-10T10:08:28.762Z,2.13
2022-10-10T10:10:59.766Z,1.73
2022-10-10T10:13:29.755Z,1.70
2022-10-10T10:16:08.187Z,2.00
2022-10-10T10:18:40.729Z,1.70
2022-10-10T10:21:22.283Z,1.70
2022-10-10T10:23:56.744Z,1.70
2022-10-10T10:26:27.325Z,1.70
2022-10-10T10:28:55.946Z,1.67
2022-10-10T10:31:32.016Z,1.50
2022-10-10T10:34:12.562Z,1.83
2022-10-10T10:36:46.112Z,1.57
2022-10-10T10:39:23.930Z,1.60
2022-10-10T10:41:54.306Z,1.70
2022-10-10T10:44:30.156Z,1.70
2022-10-10T10:47:04.668Z,1.60
2022-10-10T10:49:36.918Z,1.50
2022-10-10T10:52:12.042Z,1.90
2022-10-10T10:54:51.146Z,2.00
2022-10-10T10:57:37.153Z,1.70
2022-10-10T11:00:16.922Z,1.67
2022-10-10T11:03:35.120Z,1.50
2022-10-10T11:06:02.224Z,1.60
2022-10-10T11:08:37.809Z,1.67
2022-10-10T11:11:19.238Z,1.80
2022-10-10T11:13:51.495Z,1.97
2022-10-10T11:16:47.295Z,1.80
2022-10-10T11:19:17.215Z,1.60
2022-10-10T11:21:47.018Z,1.50
2022-10-10T11:24:16.716Z,1.70
2022-10-10T11:26:47.888Z,1.80
2022-10-10T11:29:17.063Z,1.77
2022-10-10T11:31:46.473Z,1.70
2022-10-10T11:34:16.616Z,1.60
2022-10-10T11:36:45.214Z,1.60
2022-10-10T11:39:15.749Z,1.80
2022-10-10T11:41:47.718Z,1.43
2022-10-10T11:44:18.322Z,1.40
2022-10-10T11:46:47.984Z,1.50
2022-10-10T11:49:18.760Z,1.60
2022-10-10T11:52:15.129Z,1.50
2022-10-10T11:54:49.041Z,1.67
2022-10-10T11:57:19.931Z,1.50
2022-10-10T11:59:48.953Z,1.50
2022-10-10T12:02:19.295Z,1.47
2022-10-10T12:04:47.245Z,1.33
2022-10-10T12:07:16.235Z,1.40
2022-10-10T12:09:45.566Z,1.40
2022-10-10T12:12:14.542Z,1.77
2022-10-10T12:14:45.375Z,1.50
2022-10-10T12:17:19.739Z,1.50
2022-10-10T12:19:48.561Z,1.40
2022-10-10T12:22:23.680Z,1.40
2022-10-10T12:25:09.453Z,1.60
2022-10-10T12:27:44.432Z,1.37
2022-10-10T12:30:25.862Z,1.50
2022-10-10T12:32:57.402Z,1.70
2022-10-10T12:35:36.796Z,1.50
2022-10-10T12:38:10.853Z,1.43
2022-10-10T12:41:05.820Z,1.40
2022-10-10T12:43:51.244Z,1.63
2022-10-10T12:46:25.248Z,1.40
2022-10-10T12:49:14.497Z,1.43
2022-10-10T12:51:42.398Z,1.70
2022-10-10T12:54:10.259Z,1.50
2022-10-10T12:56:40.363Z,1.53
2022-10-10T12:59:14.911Z,1.70
2022-10-10T13:01:46.424Z,1.40
2022-10-10T13:04:17.127Z,1.53
2022-10-10T13:06:45.211Z,1.70
2022-10-10T13:09:17.827Z,1.30
2022-10-10T13:11:53.587Z,1.37
2022-10-10T13:14:21.476Z,1.40
2022-10-10T13:16:50.682Z,1.20
2022-10-10T13:19:20.886Z,1.50
2022-10-10T13:21:49.189Z,1.40
2022-10-10T13:24:18.755Z,1.40
2022-10-10T13:26:47.921Z,1.67
2022-10-10T13:29:25.629Z,1.50
2022-10-10T13:31:56.207Z,1.30
2022-10-10T13:34:27.214Z,1.40
2022-10-10T13:36:56.867Z,1.43
2022-10-10T13:39:24.875Z,1.60
2022-10-10T13:41:52.741Z,1.50
2022-10-10T13:44:23.279Z,1.30
2022-10-10T13:46:51.253Z,1.60
2022-10-10T13:49:23.964Z,1.50
2022-10-10T13:52:01.610Z,1.40
2022-10-10T13:54:39.872Z,1.50
2022-10-10T13:57:17.999Z,1.30
2022-10-10T13:59:46.335Z,1.40
2022-10-10T14:02:15.653Z,1.50
2022-10-10T14:04:49.135Z,1.33
2022-10-10T14:07:19.673Z,1.50
2022-10-10T14:09:53.587Z,1.50
2022-10-10T14:12:25.441Z,1.43
2022-10-10T14:14:54.208Z,1.50
2022-10-10T14:17:22.052Z,1.40
2022-10-10T14:19:51.255Z,1.23
2022-10-10T14:22:19.297Z,1.20
2022-10-10T14:24:47.268Z,1.20
2022-10-10T14:27:23.497Z,1.50
2022-10-10T14:29:51.394Z,1.33
2022-10-10T14:32:19.730Z,1.43
2022-10-10T14:34:47.640Z,1.60
2022-10-10T14:37:19.669Z,1.50
2022-10-10T14:39:48.053Z,1.60
2022-10-10T14:42:16.753Z,1.30
2022-10-10T14:44:44.718Z,1.50
2022-10-10T14:47:16.334Z,1.20
2022-10-10T14:49:44.390Z,1.40
2022-10-10T14:52:12.273Z,1.40
2022-10-10T14:54:41.514Z,1.40
2022-10-10T14:57:10.826Z,1.30
2022-10-10T14:59:48.451Z,1.37
2022-10-10T15:02:19.006Z,1.30
2022-10-10T15:04:46.878Z,1.67
2022-10-10T15:07:15.501Z,1.50
2022-10-10T15:10:09.770Z,1.33
2022-10-10T15:12:33.149Z,1.33
2022-10-10T15:15:01.047Z,1.20
2022-10-10T15:17:30.399Z,1.50
2022-10-10T15:19:58.279Z,1.20
2022-10-10T15:22:27.390Z,1.30
2022-10-10T15:24:56.655Z,1.20
2022-10-10T15:27:24.658Z,1.30
2022-10-10T15:29:52.511Z,1.30
2022-10-10T15:32:20.423Z,1.10
2022-10-10T15:34:54.373Z,1.40
2022-10-10T15:37:28.286Z,1.40
2022-10-10T15:39:57.749Z,1.30
2022-10-10T15:42:25.623Z,1.30
2022-10-10T15:44:53.460Z,1.20
2022-10-10T15:47:21.634Z,1.27
2022-10-10T15:49:49.607Z,1.30
2022-10-10T15:52:17.740Z,1.23
2022-10-10T15:54:48.471Z,1.40
2022-10-10T15:59:17.787Z,1.20
2022-10-10T16:00:07.569Z,1.20
2022-10-10T16:02:40.067Z,1.60
2022-10-10T16:05:09.986Z,1.40
2022-10-10T16:07:46.611Z,1.30
2022-10-10T16:10:16.274Z,1.23
2022-10-10T16:12:45.518Z,1.43
2022-10-10T16:15:13.647Z,1.20
2022-10-10T16:17:41.501Z,1.20
2022-10-10T16:20:10.377Z,1.40
2022-10-10T16:22:38.229Z,1.20
2022-10-10T16:25:23.110Z,1.20
2022-10-10T16:27:52.970Z,1.23
2022-10-10T16:30:21.716Z,1.40
2022-10-10T16:32:49.725Z,1.30
2022-10-10T16:35:17.656Z,1.20
2022-10-10T16:37:45.534Z,1.20
2022-10-10T16:40:13.733Z,1.30
2022-10-10T16:42:41.591Z,1.30
2022-10-10T16:45:11.831Z,1.30
2022-10-10T16:47:39.693Z,1.13
2022-10-10T16:50:08.592Z,1.20
2022-10-10T16:52:38.219Z,1.37
2022-10-10T16:55:07.610Z,1.37
2022-10-10T16:57:35.728Z,1.20
2022-10-10T17:00:03.826Z,1.27
2022-10-10T17:02:33.061Z,1.13
2022-10-10T17:05:00.953Z,1.10
2022-10-10T17:07:28.830Z,1.40
2022-10-10T17:09:56.798Z,1.30
2022-10-10T17:12:25.012Z,1.07
2022-10-10T17:14:52.919Z,1.20
2022-10-10T17:17:20.806Z,1.30
2022-10-10T17:19:50.083Z,1.20
2022-10-10T17:22:17.936Z,1.30
2022-10-10T17:24:45.881Z,1.50
2022-10-10T17:27:14.121Z,1.27
2022-10-10T17:29:42.214Z,1.17
2022-10-10T17:32:10.103Z,1.40
2022-10-10T17:34:37.982Z,1.27
2022-10-10T17:37:07.226Z,1.40
2022-10-10T17:39:35.091Z,1.27
2022-10-10T17:42:04.510Z,1.40
2022-10-10T17:44:37.325Z,1.30
2022-10-10T17:47:07.107Z,1.30
2022-10-10T17:49:35.100Z,1.30
2022-10-10T17:52:03.123Z,1.63
2022-10-10T17:54:32.325Z,1.60
2022-10-10T17:57:00.211Z,1.50
2022-10-10T17:59:28.174Z,1.50
2022-10-10T18:01:56.112Z,1.50
2022-10-10T18:04:24.150Z,1.77
2022-10-10T18:06:52.017Z,1.60
2022-10-10T18:09:20.042Z,1.50
2022-10-10T18:11:49.230Z,1.53
2022-10-10T18:14:17.243Z,1.60
2022-10-10T18:16:45.356Z,1.70
2022-10-10T18:19:13.219Z,1.40
2022-10-10T18:21:41.069Z,1.50
2022-10-10T18:24:09.727Z,1.60
2022-10-10T18:26:37.600Z,1.53
2022-10-10T18:29:06.792Z,1.50
2022-10-10T18:31:35.364Z,1.63
2022-10-10T18:34:03.577Z,1.80
2022-10-10T18:36:32.354Z,1.80
2022-10-10T18:39:00.399Z,1.60
2022-10-10T18:41:33.884Z,1.40
2022-10-10T18:44:02.174Z,1.60
2022-10-10T18:46:31.551Z,1.60
2022-10-10T18:48:59.614Z,1.70
2022-10-10T18:51:29.486Z,1.70
2022-10-10T18:53:58.469Z,1.50
2022-10-10T18:56:26.332Z,1.50
2022-10-10T18:58:55.890Z,1.63
2022-10-10T19:01:25.154Z,1.87
2022-10-10T19:03:55.021Z,1.40
2022-10-10T19:06:23.250Z,1.90
2022-10-10T19:08:51.573Z,1.73
2022-10-10T19:11:20.428Z,1.70
2022-10-10T19:13:48.314Z,1.70
2022-10-10T19:16:16.394Z,1.50
2022-10-10T19:18:44.312Z,1.70
2022-10-10T19:21:13.598Z,1.70
2022-10-10T19:23:41.495Z,1.70
2022-10-10T19:26:10.535Z,1.87
2022-10-10T19:28:38.612Z,1.50
2022-10-10T19:31:07.921Z,1.77
2022-10-10T19:33:35.882Z,1.70
2022-10-10T19:36:04.712Z,1.50
2022-10-10T19:38:34.261Z,1.63
2022-10-10T19:41:02.684Z,1.60
2022-10-10T19:43:30.718Z,1.60
2022-10-10T19:45:58.594Z,1.60
2022-10-10T19:48:26.543Z,1.50
2022-10-10T19:50:54.567Z,1.50
2022-10-10T19:53:22.470Z,1.40
2022-10-10T19:55:58.938Z,1.60
2022-10-10T19:58:26.825Z,1.53
2022-10-10T20:00:55.069Z,1.53
2022-10-10T20:03:23.076Z,1.47
2022-10-10T20:05:51.010Z,1.50
2022-10-10T20:08:20.062Z,1.40
2022-10-10T20:10:47.903Z,1.50
2022-10-10T20:13:17.169Z,1.60
2022-10-10T20:15:45.659Z,1.57
2022-10-10T20:18:13.767Z,2.07
2022-10-10T20:20:41.982Z,1.40
2022-10-10T20:23:09.889Z,1.73
2022-10-10T20:25:38.959Z,1.67
2022-10-10T20:28:06.982Z,1.80
2022-10-10T20:30:39.250Z,1.93
2022-10-10T20:33:07.150Z,1.40
2022-10-10T20:35:35.053Z,1.80
2022-10-10T20:38:03.095Z,1.50
2022-10-10T20:40:31.292Z,1.83
2022-10-10T20:42:59.135Z,1.80
2022-10-10T20:45:27.043Z,1.53
2022-10-10T20:47:56.248Z,1.83
2022-10-10T20:50:24.098Z,1.90
2022-10-10T20:52:52.014Z,1.83
2022-10-10T20:55:19.877Z,1.53
2022-10-10T20:57:47.725Z,1.73
2022-10-10T21:00:16.590Z,1.60
2022-10-10T21:02:44.442Z,1.83
2022-10-10T21:05:13.699Z,1.83
2022-10-10T21:07:41.599Z,1.70
2022-10-10T21:10:10.295Z,1.87
2022-10-10T21:12:38.196Z,1.93
2022-10-10T21:15:06.927Z,1.80
2022-10-10T21:17:34.816Z,1.80
2022-10-10T21:20:02.713Z,1.60
2022-10-10T21:22:32.791Z,1.90
2022-10-10T21:25:00.732Z,1.73
2022-10-10T21:27:28.722Z,1.67
2022-10-10T21:29:56.764Z,1.77
2022-10-10T21:32:26.533Z,1.73
2022-10-10T21:34:56.563Z,1.60
2022-10-10T21:37:27.039Z,1.77
2022-10-10T21:39:56.472Z,1.70
2022-10-10T21:42:24.611Z,1.80
2022-10-10T21:44:52.543Z,1.73
2022-10-10T21:47:20.410Z,1.80
2022-10-10T21:49:48.276Z,1.83
2022-10-10T21:52:16.121Z,1.50
2022-10-10T21:54:43.989Z,1.67
2022-10-10T21:57:13.186Z,1.90
2022-10-10T21:59:41.022Z,1.80
2022-10-10T22:02:08.893Z,2.00
2022-10-10T22:04:36.775Z,1.60
2022-10-10T22:07:04.802Z,1.97
2022-10-10T22:09:32.665Z,1.80
2022-10-10T22:12:00.546Z,1.73
2022-10-10T22:14:29.815Z,1.57
2022-10-10T22:16:57.722Z,1.70
2022-10-10T22:19:25.609Z,1.60
2022-10-10T22:21:53.457Z,1.87
2022-10-10T22:24:21.404Z,1.60
2022-10-10T22:26:49.248Z,1.90
2022-10-10T22:29:17.126Z,1.83
2022-10-10T22:31:46.345Z,1.90
2022-10-10T22:34:14.221Z,1.80
2022-10-10T22:36:42.060Z,1.63
2022-10-10T22:39:11.032Z,1.80
2022-10-10T22:41:38.931Z,1.93
2022-10-10T22:44:07.024Z,1.50
2022-10-10T22:46:34.899Z,1.93
2022-10-10T22:49:04.330Z,1.80
2022-10-10T22:51:32.191Z,1.80
2022-10-10T22:54:00.043Z,1.67
2022-10-10T22:56:28.215Z,1.67
2022-10-10T22:58:56.227Z,1.60
2022-10-10T23:01:26.053Z,1.77
2022-10-10T23:03:55.274Z,1.70
2022-10-10T23:06:24.482Z,1.70
2022-10-10T23:08:52.350Z,1.80
2022-10-10T23:11:20.233Z,1.50
2022-10-10T23:13:48.072Z,1.60
2022-10-10T23:16:16.039Z,1.50
2022-10-10T23:18:43.929Z,1.97
2022-10-10T23:21:11.824Z,1.50
2022-10-10T23:23:41.059Z,1.70
2022-10-10T23:26:09.378Z,2.00
2022-10-10T23:28:39.195Z,1.67
2022-10-10T23:31:08.474Z,1.70
2022-10-10T23:33:37.231Z,1.57
2022-10-10T23:36:07.702Z,1.70
2022-10-10T23:38:35.884Z,1.60
2022-10-10T23:41:05.240Z,1.93
2022-10-10T23:43:33.108Z,1.50
2022-10-10T23:46:01.177Z,1.60
2022-10-10T23:48:29.322Z,1.77
2022-10-10T23:50:57.181Z,1.80
2022-10-10T23:53:25.015Z,1.50
2022-10-10T23:55:52.882Z,1.83
2022-10-10T23:58:22.131Z,1.70
